Time;durP1;ratioP1;P1;durP2;ratioP2;P2;SDS_P1;SDS_P2;PMS_P1;PMS_P2;Temp;Humidity;BMP_temperature;BMP_pressure;BME280_temperature;BME280_humidity;BME280_pressure;Samples;Min_cycle;Max_cycle;Signal;HPM_P1;HPM_P2
2022/09/22 00:01:39;;;;;;;7.90;5.90;;;;;;;8.06;97.49;97530.70;110282;1247;58885;-69
2022/09/22 00:04:11;;;;;;;8.20;6.10;;;;;;;8.08;97.82;97525.00;110083;1247;58900;-68
2022/09/22 00:06:43;;;;;;;4.50;4.00;;;;;;;8.10;97.36;97527.30;110350;1245;70626;-68
2022/09/22 00:09:13;;;;;;;6.30;4.90;;;;;;;8.12;96.73;97523.71;110346;1246;69343;-69
2022/09/22 00:11:44;;;;;;;6.50;5.00;;;;;;;8.14;96.44;97522.22;110248;1247;68907;-69
2022/09/22 00:14:27;;;;;;;6.50;4.50;;;;;;;8.13;96.31;97519.66;110161;1246;58882;-69
2022/09/22 00:17:00;;;;;;;5.80;3.90;;;;;;;8.13;96.49;97519.80;110132;1247;58908;-69
2022/09/22 00:19:34;;;;;;;7.60;5.10;;;;;;;8.14;96.75;97516.98;110255;1246;70923;-68
2022/09/22 00:22:05;;;;;;;5.70;3.70;;;;;;;8.12;97.18;97518.83;110236;1244;69259;-69
2022/09/22 00:24:34;;;;;;;4.30;3.30;;;;;;;8.13;96.71;97519.13;110120;1246;69281;-68
2022/09/22 00:27:03;;;;;;;4.50;3.30;;;;;;;8.14;96.30;97522.56;110133;1247;58953;-70
2022/09/22 00:29:32;;;;;;;3.40;3.00;;;;;;;8.15;95.38;97520.70;110420;1247;58945;-69
2022/09/22 00:32:01;;;;;;;3.30;2.90;;;;;;;8.19;94.58;97521.94;110465;1244;70627;-71
2022/09/22 00:34:35;;;;;;;5.10;3.70;;;;;;;8.20;94.78;97519.22;110289;1246;68455;-69
2022/09/22 00:37:04;;;;;;;4.30;3.50;;;;;;;8.23;94.25;97515.77;110129;1247;69374;-69
2022/09/22 00:39:33;;;;;;;4.30;3.40;;;;;;;8.25;94.30;97514.92;110351;1246;58886;-69
2022/09/22 00:42:03;;;;;;;4.20;3.20;;;;;;;8.26;93.65;97511.90;110362;1247;58874;-68
2022/09/22 00:44:40;;;;;;;5.20;3.90;;;;;;;8.28;93.31;97514.05;110689;1245;68830;-69
2022/09/22 00:47:38;;;;;;;5.10;3.10;;;;;;;8.30;92.77;97513.95;110466;1247;68559;-70
2022/09/22 00:50:18;;;;;;;6.20;3.50;;;;;;;8.31;93.13;97514.38;110453;1245;67507;-70
2022/09/22 00:52:50;;;;;;;4.30;3.20;;;;;;;8.32;92.71;97509.80;110102;1247;58913;-69
2022/09/22 00:55:28;;;;;;;3.30;2.50;;;;;;;8.32;93.35;97508.92;110159;1247;58886;-71
2022/09/22 00:57:58;;;;;;;3.20;2.20;;;;;;;8.33;93.33;97508.20;110285;1247;70619;-70
2022/09/22 01:00:28;;;;;;;4.10;3.20;;;;;;;8.34;93.27;97506.59;110221;1245;68535;-70
2022/09/22 01:03:00;;;;;;;4.30;3.10;;;;;;;8.33;92.87;97504.17;110275;1246;69300;-69
2022/09/22 01:05:32;;;;;;;4.50;3.20;;;;;;;8.33;93.03;97511.33;110357;1245;58970;-70
2022/09/22 01:08:02;;;;;;;5.60;3.20;;;;;;;8.33;92.58;97508.18;110269;1247;58916;-69
2022/09/22 01:10:30;;;;;;;3.40;2.60;;;;;;;8.32;92.65;97507.03;110204;1247;69942;-70
2022/09/22 01:13:07;;;;;;;4.30;3.20;;;;;;;8.32;92.06;97504.96;110232;1246;69338;-70
2022/09/22 01:15:47;;;;;;;4.50;3.40;;;;;;;8.30;92.42;97507.35;110112;1247;69412;-71
2022/09/22 01:18:27;;;;;;;3.70;2.90;;;;;;;8.29;92.61;97507.58;110141;1247;58893;-70
2022/09/22 01:20:55;;;;;;;;;;;;;;;8.28;91.96;97508.67;110270;1247;58930;-69
2022/09/22 01:23:34;;;;;;;4.10;3.10;;;;;;;8.27;92.14;97510.10;110202;1245;69862;-70
2022/09/22 01:26:39;;;;;;;3.00;2.30;;;;;;;8.26;92.82;97508.62;110225;1245;68467;-72
2022/09/22 01:29:44;;;;;;;4.50;3.60;;;;;;;8.25;92.35;97510.27;110267;1247;68644;-72
2022/09/22 01:32:19;;;;;;;3.60;3.30;;;;;;;8.24;92.02;97511.86;110412;1245;58895;-68
2022/09/22 01:35:11;;;;;;;3.30;2.60;;;;;;;8.24;92.53;97516.58;110276;1247;58843;-71
2022/09/22 01:37:53;;;;;;;4.30;3.30;;;;;;;8.22;93.53;97518.42;110187;1247;70733;-70
2022/09/22 01:40:21;;;;;;;4.60;3.30;;;;;;;8.22;93.26;97516.36;110278;1246;68529;-70
2022/09/22 01:43:02;;;;;;;4.90;3.30;;;;;;;8.22;92.77;97515.65;110252;1247;69356;-69
2022/09/22 01:45:32;;;;;;;4.60;3.30;;;;;;;8.22;93.72;97514.96;110235;1247;58892;-69
2022/09/22 01:48:19;;;;;;;3.80;3.10;;;;;;;8.21;93.59;97513.61;110186;1247;58827;-71
2022/09/22 01:50:56;;;;;;;4.00;3.10;;;;;;;8.19;93.16;97511.17;110388;1246;69778;-70
2022/09/22 01:53:30;;;;;;;5.40;3.30;;;;;;;8.19;93.21;97508.23;110493;1247;69396;-70
2022/09/22 01:56:04;;;;;;;3.70;2.80;;;;;;;8.19;93.34;97509.05;110424;1246;69479;-69
2022/09/22 01:58:38;;;;;;;3.60;2.90;;;;;;;8.21;92.59;97508.44;110417;1245;58938;-72
2022/09/22 02:01:12;;;;;;;4.40;3.30;;;;;;;8.22;92.49;97506.30;110526;1246;58976;-70
2022/09/22 02:03:56;;;;;;;4.10;3.30;;;;;;;8.22;92.48;97504.69;110277;1247;70744;-71
2022/09/22 02:06:35;;;;;;;3.60;2.70;;;;;;;8.24;92.46;97504.24;110109;1247;69276;-71
2022/09/22 02:09:08;;;;;;;4.00;2.80;;;;;;;8.26;92.30;97504.27;110333;1247;69354;-70
2022/09/22 02:11:38;;;;;;;3.60;2.80;;;;;;;8.27;92.06;97503.17;110352;1245;58881;-72
2022/09/22 02:14:09;;;;;;;3.50;2.40;;;;;;;8.28;91.37;97502.75;110273;1247;58842;-71
2022/09/22 02:16:38;;;;;;;4.20;3.00;;;;;;;8.30;91.44;97504.35;110163;1247;70696;-71
2022/09/22 02:19:23;;;;;;;3.50;2.80;;;;;;;8.32;91.82;97503.39;110458;1245;68506;-69
2022/09/22 02:21:53;;;;;;;3.80;2.70;;;;;;;8.33;92.37;97500.23;110268;1245;69493;-70
2022/09/22 02:24:39;;;;;;;4.80;3.00;;;;;;;8.33;92.43;97494.84;110394;1247;58918;-71
2022/09/22 02:27:34;;;;;;;4.40;3.20;;;;;;;8.31;92.74;97496.99;110216;1247;58910;-71
2022/09/22 02:30:10;;;;;;;4.00;3.00;;;;;;;8.32;93.37;97496.29;110240;1247;70640;-69
2022/09/22 02:32:45;;;;;;;4.00;2.70;;;;;;;8.31;93.69;97499.63;110162;1247;68350;-69
2022/09/22 02:35:15;;;;;;;4.50;3.30;;;;;;;8.30;93.80;97497.06;110087;1247;68618;-71
2022/09/22 02:37:49;;;;;;;;;;;;;;;8.30;93.49;97494.83;110146;1247;58909;-70
2022/09/22 02:40:45;;;;;;;4.70;3.40;;;;;;;8.30;93.43;97494.16;110067;1247;59021;-70
2022/09/22 02:43:20;;;;;;;4.50;3.00;;;;;;;8.29;92.92;97498.38;110212;1245;70964;-70
2022/09/22 02:46:26;;;;;;;3.80;2.60;;;;;;;8.29;93.77;97497.83;110336;1247;69240;-69
2022/09/22 02:49:01;;;;;;;3.50;2.50;;;;;;;8.29;94.14;97497.69;110282;1245;68619;-68
2022/09/22 02:51:33;;;;;;;3.50;2.50;;;;;;;8.30;94.05;97498.85;110221;1247;58818;-70
2022/09/22 02:54:03;;;;;;;3.50;2.60;;;;;;;8.28;94.30;97497.02;110111;1247;58944;-69
2022/09/22 02:56:34;;;;;;;4.50;2.70;;;;;;;8.29;94.26;97496.33;110342;1247;68779;-70
2022/09/22 02:59:02;;;;;;;4.10;2.90;;;;;;;8.29;94.20;97497.17;110138;1247;68487;-69
2022/09/22 03:01:30;;;;;;;3.50;2.70;;;;;;;8.29;93.97;97497.48;110137;1247;68756;-68
2022/09/22 03:03:58;;;;;;;3.50;2.40;;;;;;;8.29;93.85;97498.54;110199;1245;58936;-70
2022/09/22 03:06:27;;;;;;;4.00;2.90;;;;;;;8.29;94.11;97497.33;110077;1247;58892;-70
2022/09/22 03:08:56;;;;;;;4.40;2.90;;;;;;;8.28;94.11;97496.71;110222;1245;70759;-69
2022/09/22 03:11:26;;;;;;;3.70;2.80;;;;;;;8.27;93.71;97497.95;110371;1245;67467;-69
2022/09/22 03:13:54;;;;;;;4.40;3.50;;;;;;;8.27;93.44;97499.90;110324;1246;69440;-69
2022/09/22 03:16:23;;;;;;;4.00;2.60;;;;;;;8.26;93.52;97501.16;110335;1245;58944;-69
2022/09/22 03:18:52;;;;;;;3.60;2.80;;;;;;;8.27;93.51;97502.33;110334;1245;58889;-70
2022/09/22 03:21:20;;;;;;;3.70;2.70;;;;;;;8.28;93.34;97503.52;110136;1245;69879;-70
2022/09/22 03:23:50;;;;;;;3.80;3.00;;;;;;;8.25;95.02;97505.04;110462;1245;68468;-68
2022/09/22 03:26:18;;;;;;;2.80;2.30;;;;;;;8.25;95.28;97502.95;110164;1247;69459;-69
2022/09/22 03:28:47;;;;;;;4.10;2.90;;;;;;;8.25;95.40;97505.23;110232;1244;58963;-70
2022/09/22 03:31:15;;;;;;;3.20;2.50;;;;;;;8.25;96.06;97502.77;110353;1245;58862;-69
2022/09/22 03:33:44;;;;;;;3.00;2.50;;;;;;;8.26;96.02;97504.80;110658;1245;69927;-68
2022/09/22 03:36:19;;;;;;;3.60;2.40;;;;;;;8.27;95.73;97505.46;110360;1245;68745;-70
2022/09/22 03:38:48;;;;;;;4.00;2.80;;;;;;;8.27;95.10;97504.54;110441;1245;68849;-69
2022/09/22 03:41:17;;;;;;;3.20;2.40;;;;;;;8.29;94.97;97504.31;110273;1245;58928;-68
2022/09/22 03:43:45;;;;;;;4.30;2.50;;;;;;;8.29;95.05;97500.10;110114;1247;58843;-68
2022/09/22 03:46:13;;;;;;;3.10;2.70;;;;;;;8.31;95.12;97500.52;110109;1247;71458;-67
2022/09/22 03:48:41;;;;;;;4.20;3.00;;;;;;;8.31;95.55;97499.30;110065;1245;68583;-71
2022/09/22 03:51:12;;;;;;;4.40;2.70;;;;;;;8.31;95.53;97503.77;110188;1244;69388;-70
2022/09/22 03:53:40;;;;;;;3.70;2.70;;;;;;;8.32;95.18;97503.39;110344;1247;58935;-69
2022/09/22 03:56:11;;;;;;;4.60;3.20;;;;;;;8.32;95.14;97503.72;110232;1245;58837;-69
2022/09/22 03:58:39;;;;;;;5.80;3.50;;;;;;;8.31;94.59;97502.58;110355;1245;70605;-69
2022/09/22 04:01:10;;;;;;;4.20;2.90;;;;;;;8.31;94.12;97503.08;110195;1245;69299;-70
2022/09/22 04:03:39;;;;;;;3.80;2.50;;;;;;;8.33;93.86;97503.01;110242;1245;68873;-68
2022/09/22 04:06:09;;;;;;;4.20;3.30;;;;;;;8.35;94.70;97504.76;110267;1245;58899;-69
2022/09/22 04:08:37;;;;;;;7.00;3.30;;;;;;;8.34;95.21;97503.92;110147;1245;58941;-69
2022/09/22 04:11:07;;;;;;;4.20;3.40;;;;;;;8.35;94.48;97508.92;110362;1244;69896;-68
2022/09/22 04:13:35;;;;;;;5.20;3.30;;;;;;;8.32;93.11;97507.92;110278;1245;68767;-69
2022/09/22 04:16:04;;;;;;;4.10;2.90;;;;;;;8.27;93.24;97507.51;110122;1247;69205;-68
2022/09/22 04:18:33;;;;;;;4.00;3.20;;;;;;;8.26;93.28;97510.16;110235;1245;58901;-69
2022/09/22 04:21:00;;;;;;;3.90;2.70;;;;;;;8.27;93.43;97510.81;110427;1245;58934;-69
2022/09/22 04:23:28;;;;;;;4.00;2.30;;;;;;;8.28;94.98;97515.80;110309;1247;69851;-68
2022/09/22 04:25:56;;;;;;;3.00;2.50;;;;;;;8.28;95.65;97514.91;110148;1245;69550;-69
2022/09/22 04:28:25;;;;;;;4.30;3.40;;;;;;;8.29;96.00;97520.25;110157;1245;69373;-69
2022/09/22 04:30:52;;;;;;;4.40;3.00;;;;;;;8.30;96.42;97523.84;110255;1245;58903;-70
2022/09/22 04:33:22;;;;;;;5.80;3.00;;;;;;;8.31;96.56;97520.30;110219;1245;58832;-69
2022/09/22 04:35:50;;;;;;;4.60;3.20;;;;;;;8.32;96.44;97520.25;110163;1247;69843;-70
2022/09/22 04:38:18;;;;;;;4.70;3.10;;;;;;;8.33;96.68;97522.92;110240;1245;69347;-69
2022/09/22 04:40:48;;;;;;;5.60;3.60;;;;;;;8.34;96.34;97520.11;110405;1245;68791;-69
2022/09/22 04:43:18;;;;;;;5.30;3.70;;;;;;;8.34;95.89;97522.67;110448;1245;58950;-69
2022/09/22 04:45:47;;;;;;;4.10;3.30;;;;;;;8.36;95.72;97522.24;110416;1245;58899;-69
2022/09/22 04:48:15;;;;;;;5.20;3.10;;;;;;;8.38;95.50;97519.36;110341;1245;70687;-69
2022/09/22 04:50:44;;;;;;;4.00;3.00;;;;;;;8.41;95.33;97520.40;110262;1245;68610;-71
2022/09/22 04:53:15;;;;;;;5.60;3.80;;;;;;;8.44;95.41;97519.84;110223;1245;68571;-69
2022/09/22 04:55:43;;;;;;;5.10;3.30;;;;;;;8.46;95.60;97519.89;110109;1246;58926;-69
2022/09/22 04:58:10;;;;;;;4.70;3.50;;;;;;;8.47;95.42;97520.05;110218;1246;58866;-69
2022/09/22 05:00:38;;;;;;;4.60;2.90;;;;;;;8.50;95.44;97520.36;110134;1246;70682;-68
2022/09/22 05:03:11;;;;;;;4.90;3.70;;;;;;;8.53;95.48;97520.00;110129;1245;69371;-69
2022/09/22 05:05:39;;;;;;;5.40;3.50;;;;;;;8.56;95.46;97520.17;110126;1247;69360;-68
2022/09/22 05:08:07;;;;;;;4.20;2.80;;;;;;;8.60;94.72;97520.58;110194;1244;58954;-70
2022/09/22 05:10:35;;;;;;;5.00;3.80;;;;;;;8.63;94.02;97521.93;110235;1245;58846;-71
2022/09/22 05:13:04;;;;;;;4.00;3.30;;;;;;;8.67;93.88;97523.59;110465;1245;70586;-68
2022/09/22 05:15:33;;;;;;;5.50;3.90;;;;;;;8.72;93.43;97526.60;110133;1247;68482;-69
2022/09/22 05:18:01;;;;;;;5.20;4.00;;;;;;;8.75;92.95;97523.64;110241;1245;68610;-69
2022/09/22 05:20:28;;;;;;;5.30;3.70;;;;;;;8.79;92.34;97525.67;110413;1245;58940;-69
2022/09/22 05:22:56;;;;;;;5.60;3.70;;;;;;;8.80;91.97;97522.48;110341;1247;58888;-70
2022/09/22 05:25:23;;;;;;;5.30;3.60;;;;;;;8.83;91.55;97523.51;110360;1244;71513;-71
2022/09/22 05:27:52;;;;;;;5.80;4.30;;;;;;;8.83;91.70;97524.52;110383;1245;69334;-69
2022/09/22 05:30:23;;;;;;;5.10;3.80;;;;;;;8.85;91.63;97517.64;110410;1245;69425;-69
2022/09/22 05:32:50;;;;;;;;;;;;;;;8.86;91.55;97518.73;110294;1247;58877;-70
2022/09/22 05:35:22;;;;;;;5.70;4.10;;;;;;;8.89;91.56;97519.11;110246;1245;58867;-69
2022/09/22 05:37:51;;;;;;;6.00;4.20;;;;;;;8.92;91.49;97520.46;108810;1245;1934808;-69
2022/09/22 05:40:22;;;;;;;5.00;3.60;;;;;;;8.96;91.52;97520.73;110173;1247;68467;-70
2022/09/22 05:42:52;;;;;;;4.90;3.30;;;;;;;8.98;91.53;97526.20;110269;1244;69386;-69
2022/09/22 05:45:21;;;;;;;5.80;4.30;;;;;;;8.98;91.37;97524.23;110142;1247;58950;-69
2022/09/22 05:47:50;;;;;;;5.20;4.00;;;;;;;8.96;91.69;97526.48;110221;1246;58847;-67
2022/09/22 05:50:19;;;;;;;4.80;3.60;;;;;;;8.98;91.07;97529.80;110130;1247;69201;-68
2022/09/22 05:52:46;;;;;;;5.50;3.90;;;;;;;8.95;90.86;97532.44;110429;1244;68409;-68
2022/09/22 05:55:13;;;;;;;4.70;3.40;;;;;;;8.96;90.94;97527.33;110208;1245;69616;-66
2022/09/22 05:57:42;;;;;;;5.10;3.80;;;;;;;8.96;91.16;97527.02;110291;1245;58939;-67
2022/09/22 06:00:12;;;;;;;6.40;4.20;;;;;;;8.92;91.54;97525.31;110110;1247;58884;-70
2022/09/22 06:02:43;;;;;;;5.50;3.70;;;;;;;8.90;90.89;97522.45;110392;1245;70703;-68
2022/09/22 06:05:11;;;;;;;5.20;3.90;;;;;;;8.83;90.80;97527.48;110092;1247;69403;-70
2022/09/22 06:07:42;;;;;;;6.40;4.20;;;;;;;8.89;90.67;97524.81;110343;1245;69469;-69
2022/09/22 06:10:11;;;;;;;5.10;4.00;;;;;;;8.84;90.45;97526.21;110257;1245;58893;-67
2022/09/22 06:12:39;;;;;;;5.10;3.50;;;;;;;8.84;90.54;97524.65;110401;1245;58812;-70
2022/09/22 06:15:08;;;;;;;5.10;3.10;;;;;;;8.89;90.73;97527.27;110306;1245;69959;-68
2022/09/22 06:17:35;;;;;;;4.80;3.60;;;;;;;8.94;90.48;97525.20;110269;1245;69346;-69
2022/09/22 06:20:03;;;;;;;5.40;3.50;;;;;;;9.01;90.32;97528.08;110147;1245;69928;-69
2022/09/22 06:22:34;;;;;;;5.20;4.20;;;;;;;9.06;89.83;97527.21;110165;1245;58894;-69
2022/09/22 06:25:02;;;;;;;5.10;4.00;;;;;;;9.11;89.66;97522.16;110432;1245;59060;-68
2022/09/22 06:27:29;;;;;;;4.80;3.70;;;;;;;9.17;89.34;97527.19;110383;1244;70745;-68
2022/09/22 06:29:57;;;;;;;7.00;4.60;;;;;;;9.17;88.81;97528.08;110048;1247;69407;-69
2022/09/22 06:32:25;;;;;;;5.90;4.00;;;;;;;9.21;88.86;97527.83;110140;1247;69402;-70
2022/09/22 06:34:52;;;;;;;5.30;3.20;;;;;;;9.25;89.08;97529.09;110192;1244;58854;-68
2022/09/22 06:37:20;;;;;;;4.70;3.10;;;;;;;9.33;89.23;97535.00;110219;1245;58838;-69
2022/09/22 06:39:47;;;;;;;4.60;3.40;;;;;;;9.41;88.87;97536.41;110071;1246;70897;-68
2022/09/22 06:42:16;;;;;;;5.70;3.70;;;;;;;9.47;88.63;97532.02;110161;1245;69746;-69
2022/09/22 06:44:44;;;;;;;4.60;3.10;;;;;;;9.52;88.59;97531.88;110341;1244;69426;-69
2022/09/22 06:47:12;;;;;;;4.20;3.20;;;;;;;9.55;88.58;97535.64;110256;1245;58987;-68
2022/09/22 06:49:41;;;;;;;5.30;3.30;;;;;;;9.57;88.27;97535.86;110191;1245;58934;-69
2022/09/22 06:52:12;;;;;;;5.30;3.60;;;;;;;9.59;88.17;97536.76;110433;1245;69997;-70
2022/09/22 06:54:40;;;;;;;5.90;3.70;;;;;;;9.61;88.48;97535.75;110465;1245;68922;-71
2022/09/22 06:57:09;;;;;;;5.80;3.50;;;;;;;9.66;88.23;97540.64;110497;1244;69570;-69
2022/09/22 06:59:37;;;;;;;6.50;4.00;;;;;;;9.67;87.07;97539.17;110357;1244;59132;-68
2022/09/22 07:02:06;;;;;;;6.00;4.30;;;;;;;9.68;87.17;97534.95;110384;1245;58885;-69
2022/09/22 07:04:33;;;;;;;5.80;3.30;;;;;;;9.72;87.23;97537.08;110291;1244;69846;-68
2022/09/22 07:07:02;;;;;;;4.50;3.00;;;;;;;9.79;86.57;97537.55;110343;1245;69935;-68
2022/09/22 07:09:30;;;;;;;4.60;3.30;;;;;;;9.85;86.67;97541.29;110518;1245;68401;-68
2022/09/22 07:11:59;;;;;;;4.10;3.10;;;;;;;9.93;85.95;97541.77;110377;1245;58899;-69
2022/09/22 07:14:28;;;;;;;5.30;3.80;;;;;;;10.01;85.06;97540.01;110437;1245;58913;-67
2022/09/22 07:16:56;;;;;;;4.50;2.90;;;;;;;10.11;85.41;97545.07;110414;1244;70691;-68
2022/09/22 07:19:25;;;;;;;3.50;2.60;;;;;;;10.21;84.69;97545.42;110428;1244;69442;-67
2022/09/22 07:21:52;;;;;;;4.80;3.70;;;;;;;10.28;84.12;97547.79;110273;1245;69736;-68
2022/09/22 07:24:19;;;;;;;5.10;3.70;;;;;;;10.38;83.70;97548.14;110379;1244;58940;-69
2022/09/22 07:26:47;;;;;;;4.50;3.50;;;;;;;10.45;83.14;97546.21;110324;1245;58945;-69
2022/09/22 07:29:15;;;;;;;4.30;3.20;;;;;;;10.50;82.49;97547.61;110464;1244;70040;-69
2022/09/22 07:31:43;;;;;;;4.50;3.30;;;;;;;10.56;81.75;97548.81;110467;1245;67597;-69
2022/09/22 07:34:11;;;;;;;4.90;3.50;;;;;;;10.62;82.30;97550.94;110477;1245;69332;-69
2022/09/22 07:36:39;;;;;;;3.80;2.80;;;;;;;10.71;82.28;97551.02;110509;1245;58918;-67
2022/09/22 07:39:12;;;;;;;4.00;2.90;;;;;;;10.80;82.15;97551.97;110453;1245;58849;-70
2022/09/22 07:41:48;;;;;;;3.80;2.60;;;;;;;10.86;79.94;97550.48;110281;1244;68871;-70
2022/09/22 07:47:03;;;;;;;4.30;3.20;;;;;;;10.97;77.84;97553.90;110511;1245;69661;-69
2022/09/22 07:49:31;;;;;;;4.10;2.90;;;;;;;11.06;78.75;97548.52;110398;1244;58957;-70
2022/09/22 07:51:58;;;;;;;4.30;3.30;;;;;;;11.13;78.09;97551.80;110470;1244;58893;-68
2022/09/22 07:54:26;;;;;;;3.70;2.60;;;;;;;11.17;77.03;97551.17;110540;1245;70741;-69
2022/09/22 07:56:57;;;;;;;2.80;2.30;;;;;;;11.15;76.18;97555.52;110535;1245;68587;-69
2022/09/22 07:59:26;;;;;;;3.40;2.40;;;;;;;11.19;76.60;97557.16;110491;1244;67881;-69
2022/09/22 08:01:54;;;;;;;3.00;2.10;;;;;;;11.19;76.28;97555.23;110346;1243;58867;-69
2022/09/22 08:04:22;;;;;;;3.00;2.30;;;;;;;11.16;74.70;97558.73;110332;1245;58867;-69
2022/09/22 08:06:54;;;;;;;4.30;2.50;;;;;;;11.19;75.46;97558.73;110283;1245;69943;-69
2022/09/22 08:09:22;;;;;;;3.90;2.70;;;;;;;11.20;74.96;97557.97;110432;1244;69346;-69
2022/09/22 08:11:51;;;;;;;4.00;2.10;;;;;;;11.21;74.24;97552.27;110323;1245;69466;-72
2022/09/22 08:14:20;;;;;;;2.60;1.90;;;;;;;11.29;74.68;97556.58;110452;1244;58830;-70
2022/09/22 08:16:50;;;;;;;4.40;2.70;;;;;;;11.42;74.31;97553.88;110439;1247;58882;-71
2022/09/22 08:19:18;;;;;;;3.80;2.40;;;;;;;11.58;73.83;97553.60;110429;1245;70644;-71
2022/09/22 08:21:50;;;;;;;3.10;2.30;;;;;;;11.72;74.63;97546.77;110304;1244;69415;-69
2022/09/22 08:24:21;;;;;;;3.00;2.10;;;;;;;11.88;74.70;97551.55;110441;1245;69364;-70
2022/09/22 08:26:51;;;;;;;4.00;2.10;;;;;;;12.00;74.03;97551.84;110352;1245;58871;-69
2022/09/22 08:29:21;;;;;;;3.50;2.10;;;;;;;12.14;74.05;97548.61;110605;1244;58891;-70
2022/09/22 08:31:50;;;;;;;2.60;1.70;;;;;;;12.25;73.36;97548.48;110527;1245;70593;-69
2022/09/22 08:34:17;;;;;;;4.30;2.60;;;;;;;12.22;69.50;97544.73;110566;1244;69508;-69
2022/09/22 08:36:47;;;;;;;3.10;2.10;;;;;;;12.21;70.96;97544.23;110300;1245;68639;-68
2022/09/22 08:39:16;;;;;;;4.50;2.50;;;;;;;12.13;70.21;97548.73;110420;1243;58913;-69
2022/09/22 08:41:58;;;;;;;2.60;2.10;;;;;;;12.06;69.98;97546.16;110538;1244;58929;-70
2022/09/22 08:44:45;;;;;;;3.40;2.30;;;;;;;12.09;71.92;97547.66;110434;1244;69649;-70
2022/09/22 08:53:36;;;;;;;4.10;2.80;;;;;;;12.22;70.67;97543.14;110274;1245;58902;-68
2022/09/22 08:56:37;;;;;;;2.40;1.70;;;;;;;12.18;69.18;97539.11;110384;1245;58854;-69
2022/09/22 08:59:21;;;;;;;4.40;2.60;;;;;;;12.19;70.66;97538.98;110292;1244;71751;-70
2022/09/22 09:02:15;;;;;;;4.20;2.20;;;;;;;12.20;71.40;97536.15;110157;1247;69342;-70
2022/09/22 09:04:50;;;;;;;3.50;2.60;;;;;;;12.16;71.28;97537.70;110186;1243;68396;-68
2022/09/22 09:07:45;;;;;;;2.90;2.30;;;;;;;12.10;71.17;97532.02;110390;1244;58803;-70
2022/09/22 09:10:44;;;;;;;2.90;2.20;;;;;;;12.01;70.55;97534.80;110450;1244;58856;-70
2022/09/22 09:13:37;;;;;;;3.20;2.30;;;;;;;12.08;69.98;97533.92;110467;1245;70645;-72
2022/09/22 09:16:19;;;;;;;2.80;1.90;;;;;;;12.50;71.05;97528.58;110337;1244;68537;-69
2022/09/22 09:18:59;;;;;;;3.20;2.20;;;;;;;13.07;69.27;97524.86;110390;1244;69445;-69
2022/09/22 09:21:30;;;;;;;2.80;2.20;;;;;;;13.51;66.83;97524.15;110449;1244;58963;-71
2022/09/22 09:24:02;;;;;;;2.50;1.90;;;;;;;14.12;67.13;97521.79;110240;1244;58811;-69
2022/09/22 09:26:51;;;;;;;3.50;2.10;;;;;;;14.83;61.28;97520.70;110277;1245;70216;-70
2022/09/22 09:29:23;;;;;;;2.60;1.80;;;;;;;15.29;61.72;97516.58;110631;1244;68929;-69
2022/09/22 09:31:54;;;;;;;2.80;1.80;;;;;;;15.69;60.83;97518.11;110290;1244;68630;-70
2022/09/22 09:34:27;;;;;;;2.10;1.60;;;;;;;15.94;59.00;97520.38;110427;1245;59106;-67
2022/09/22 09:37:07;;;;;;;2.40;1.60;;;;;;;16.32;59.66;97521.48;110398;1245;58883;-69
2022/09/22 09:39:38;;;;;;;3.70;2.10;;;;;;;16.89;56.19;97515.40;110408;1245;69969;-69
2022/09/22 09:42:18;;;;;;;2.80;1.60;;;;;;;17.17;54.80;97511.42;110283;1245;69628;-69
2022/09/22 09:44:52;;;;;;;2.20;1.70;;;;;;;17.61;53.72;97512.87;110419;1245;68762;-70
2022/09/22 09:47:39;;;;;;;2.90;1.70;;;;;;;18.39;53.15;97514.51;110454;1244;58940;-70
2022/09/22 09:50:09;;;;;;;3.00;1.50;;;;;;;18.92;48.61;97511.16;110518;1242;58934;-68
2022/09/22 09:52:38;;;;;;;2.30;1.50;;;;;;;19.02;49.70;97508.70;110478;1244;70706;-68
2022/09/22 09:55:19;;;;;;;2.70;1.70;;;;;;;18.17;46.83;97503.67;110498;1245;68611;-69
2022/09/22 10:01:04;;;;;;;2.30;1.30;;;;;;;19.50;48.98;97499.48;110113;1245;58925;-70
2022/09/22 10:03:34;;;;;;;1.90;1.20;;;;;;;20.23;46.24;97499.85;110277;1244;58903;-70
2022/09/22 10:06:09;;;;;;;1.90;1.50;;;;;;;20.56;43.51;97500.71;110519;1244;71353;-69
2022/09/22 10:08:48;;;;;;;1.30;1.20;;;;;;;19.83;40.87;97501.86;110224;1245;69341;-70
2022/09/22 10:11:15;;;;;;;1.50;1.10;;;;;;;19.57;43.33;97502.04;110272;1245;68653;-70
2022/09/22 10:13:55;;;;;;;1.50;1.30;;;;;;;19.29;44.95;97498.77;110435;1244;59280;-69
2022/09/22 10:16:32;;;;;;;2.10;1.30;;;;;;;18.94;45.20;97501.39;110390;1245;58793;-70
2022/09/22 10:19:24;;;;;;;1.70;1.30;;;;;;;18.07;45.77;97498.84;110422;1245;71460;-71
2022/09/22 10:21:51;;;;;;;2.50;1.50;;;;;;;16.49;48.32;97499.30;110464;1245;68546;-71
2022/09/22 10:24:26;;;;;;;1.70;1.30;;;;;;;16.14;49.75;97494.70;110726;1244;69206;-69
2022/09/22 10:26:57;;;;;;;2.50;1.60;;;;;;;16.39;49.81;97493.44;110316;1244;58953;-69
2022/09/22 10:29:27;;;;;;;1.60;1.50;;;;;;;16.82;49.20;97489.44;110511;1244;58793;-70
2022/09/22 10:32:02;;;;;;;2.50;1.40;;;;;;;17.35;49.19;97488.52;110476;1245;71033;-70
2022/09/22 10:34:45;;;;;;;1.60;1.20;;;;;;;17.44;48.39;97484.75;110359;1245;68536;-69
2022/09/22 10:37:27;;;;;;;3.00;1.50;;;;;;;17.36;48.33;97484.75;110299;1244;69089;-71
2022/09/22 10:40:01;;;;;;;2.10;1.40;;;;;;;18.08;47.91;97485.42;110269;1245;58996;-71
2022/09/22 10:42:39;;;;;;;2.20;1.70;;;;;;;18.69;46.50;97485.45;110279;1245;58974;-70
2022/09/22 10:45:18;;;;;;;1.80;1.40;;;;;;;18.99;45.02;97478.07;110196;1245;69936;-70
2022/09/22 10:48:17;;;;;;;2.20;1.50;;;;;;;19.15;45.94;97478.26;110130;1247;69754;-70
2022/09/22 10:51:27;;;;;;;1.50;1.40;;;;;;;18.62;43.63;97474.49;110131;1245;69574;-70
2022/09/22 10:54:22;;;;;;;2.60;1.80;;;;;;;19.22;44.10;97474.38;109963;1245;58894;-72
2022/09/22 10:56:54;;;;;;;3.50;2.70;;;;;;;18.75;43.29;97472.00;110332;1245;58797;-70
2022/09/22 10:59:36;;;;;;;2.40;1.40;;;;;;;18.45;43.72;97467.48;110459;1245;71092;-71
2022/09/22 11:02:17;;;;;;;2.00;1.50;;;;;;;18.02;44.84;97465.21;111148;1245;69336;-70
2022/09/22 11:05:11;;;;;;;1.90;1.30;;;;;;;18.64;45.23;97463.52;110376;1245;68669;-73
2022/09/22 11:14:12;;;;;;;1.60;1.20;;;;;;;19.16;43.25;97457.16;110463;1245;70624;-69
2022/09/22 11:16:55;;;;;;;2.00;1.40;;;;;;;19.18;43.30;97452.53;110386;1245;69253;-70
2022/09/22 11:19:58;;;;;;;1.90;1.20;;;;;;;19.38;43.41;97448.96;110299;1245;67450;-71
2022/09/22 11:23:02;;;;;;;2.00;1.60;;;;;;;19.71;43.24;97442.98;110118;1247;58912;-72
2022/09/22 11:25:35;;;;;;;1.50;1.20;;;;;;;19.55;41.91;97439.88;110533;1245;58882;-71
2022/09/22 11:28:02;;;;;;;1.90;1.30;;;;;;;19.62;41.29;97437.92;110383;1245;69892;-70
2022/09/22 11:30:39;;;;;;;2.20;1.70;;;;;;;19.92;41.51;97437.65;110403;1245;68653;-71
2022/09/22 11:33:33;;;;;;;2.20;1.80;;;;;;;20.41;41.07;97434.23;110358;1245;68696;-70
2022/09/22 11:36:30;;;;;;;1.90;1.50;;;;;;;18.87;41.81;97429.70;110379;1244;58999;-71
2022/09/22 11:39:10;;;;;;;1.40;1.10;;;;;;;19.27;40.87;97427.35;110436;1245;58913;-71
2022/09/22 11:41:49;;;;;;;2.00;1.60;;;;;;;19.44;40.21;97422.38;110373;1245;70593;-71
2022/09/22 11:44:25;;;;;;;1.50;1.10;;;;;;;18.94;41.35;97421.58;110298;1245;69700;-71
2022/09/22 11:47:10;;;;;;;1.50;1.10;;;;;;;19.75;40.61;97418.48;110207;1244;69343;-71
2022/09/22 11:50:18;;;;;;;2.50;1.40;;;;;;;20.20;40.32;97417.66;110305;1245;58867;-72
2022/09/22 11:53:07;;;;;;;2.10;1.40;;;;;;;20.80;39.30;97417.29;110150;1245;58915;-70
2022/09/22 11:55:58;;;;;;;1.50;1.10;;;;;;;20.28;38.26;97417.48;110488;1245;70828;-72
2022/09/22 11:58:30;;;;;;;1.40;1.10;;;;;;;20.41;40.16;97418.17;110571;1245;69394;-71
2022/09/22 12:01:00;;;;;;;1.60;1.00;;;;;;;20.50;39.84;97415.10;110523;1244;69354;-71
2022/09/22 12:04:03;;;;;;;2.20;1.10;;;;;;;20.37;38.71;97414.38;110375;1244;58878;-71
2022/09/22 12:06:40;;;;;;;1.80;1.20;;;;;;;20.13;39.63;97413.18;110181;1245;58895;-71
2022/09/22 12:09:26;;;;;;;1.40;1.10;;;;;;;20.13;38.85;97414.41;110309;1245;70722;-71
2022/09/22 12:11:55;;;;;;;1.00;0.80;;;;;;;20.45;38.96;97407.85;110477;1244;68579;-72
2022/09/22 12:14:23;;;;;;;;;;;;;;;21.18;38.92;97409.20;110651;1245;68583;-73
2022/09/22 12:17:01;;;;;;;1.60;1.20;;;;;;;21.08;37.80;97404.48;110606;1245;58951;-72
2022/09/22 12:19:39;;;;;;;1.80;1.40;;;;;;;21.60;36.99;97407.69;110530;1245;58908;-73
2022/09/22 12:22:31;;;;;;;1.50;1.10;;;;;;;19.18;39.21;97405.24;109763;1251;71348;-71